sensor_id;sensor_type;location;lat;lon;timestamp;pressure;altitude;pressure_sealevel;temperature;humidity
51528;BME280;37612;51.768;21.590;2023-04-16T00:00:39;99835.55;;;7.90;96.80
51528;BME280;37612;51.768;21.590;2023-04-16T00:05:01;99841.98;;;7.85;97.56
51528;BME280;37612;51.768;21.590;2023-04-16T00:09:03;99839.41;;;7.81;97.44
51528;BME280;37612;51.768;21.590;2023-04-16T00:13:05;99841.90;;;7.81;97.99
51528;BME280;37612;51.768;21.590;2023-04-16T00:17:07;99845.69;;;7.81;97.71
51528;BME280;37612;51.768;21.590;2023-04-16T00:21:09;99841.21;;;7.78;97.58
51528;BME280;37612;51.768;21.590;2023-04-16T00:25:12;99839.06;;;7.76;98.06
51528;BME280;37612;51.768;21.590;2023-04-16T00:29:14;99836.09;;;7.77;98.40
51528;BME280;37612;51.768;21.590;2023-04-16T00:33:16;99835.77;;;7.74;98.40
51528;BME280;37612;51.768;21.590;2023-04-16T00:37:18;99833.37;;;7.68;98.50
51528;BME280;37612;51.768;21.590;2023-04-16T00:41:20;99837.80;;;7.63;98.45
51528;BME280;37612;51.768;21.590;2023-04-16T00:45:23;99836.63;;;7.61;98.61
51528;BME280;37612;51.768;21.590;2023-04-16T00:49:25;99837.75;;;7.61;98.97
51528;BME280;37612;51.768;21.590;2023-04-16T00:53:27;99835.38;;;7.59;99.01
51528;BME280;37612;51.768;21.590;2023-04-16T00:57:29;99836.59;;;7.54;98.99
51528;BME280;37612;51.768;21.590;2023-04-16T01:01:31;99836.36;;;7.48;99.10
51528;BME280;37612;51.768;21.590;2023-04-16T01:05:40;99841.36;;;7.48;99.19
51528;BME280;37612;51.768;21.590;2023-04-16T01:09:42;99841.64;;;7.46;99.07
51528;BME280;37612;51.768;21.590;2023-04-16T01:13:44;99852.73;;;7.42;99.18
51528;BME280;37612;51.768;21.590;2023-04-16T01:17:47;99852.23;;;7.37;99.20
51528;BME280;37612;51.768;21.590;2023-04-16T01:21:49;99854.23;;;7.35;98.85
51528;BME280;37612;51.768;21.590;2023-04-16T01:25:51;99858.01;;;7.32;99.18
51528;BME280;37612;51.768;21.590;2023-04-16T01:29:53;99858.95;;;7.32;99.41
51528;BME280;37612;51.768;21.590;2023-04-16T01:33:56;99856.34;;;7.26;99.60
51528;BME280;37612;51.768;21.590;2023-04-16T01:37:58;99859.62;;;7.21;99.62
51528;BME280;37612;51.768;21.590;2023-04-16T01:42:00;99862.34;;;7.21;99.64
51528;BME280;37612;51.768;21.590;2023-04-16T01:46:11;99870.05;;;7.23;99.80
51528;BME280;37612;51.768;21.590;2023-04-16T01:50:19;99865.91;;;7.26;99.74
51528;BME280;37612;51.768;21.590;2023-04-16T01:54:21;99865.75;;;7.25;99.85
51528;BME280;37612;51.768;21.590;2023-04-16T01:58:23;99872.66;;;7.22;99.88
51528;BME280;37612;51.768;21.590;2023-04-16T02:02:25;99874.05;;;7.23;99.86
51528;BME280;37612;51.768;21.590;2023-04-16T02:06:29;99871.83;;;7.21;99.90
51528;BME280;37612;51.768;21.590;2023-04-16T02:10:32;99869.71;;;7.16;99.90
51528;BME280;37612;51.768;21.590;2023-04-16T02:14:33;99877.02;;;7.11;100.00
51528;BME280;37612;51.768;21.590;2023-04-16T02:18:35;99882.68;;;7.05;99.99
51528;BME280;37612;51.768;21.590;2023-04-16T02:22:37;99882.73;;;7.04;100.00
51528;BME280;37612;51.768;21.590;2023-04-16T02:26:39;99890.37;;;7.02;100.00
51528;BME280;37612;51.768;21.590;2023-04-16T02:30:42;99888.79;;;6.99;100.00
51528;BME280;37612;51.768;21.590;2023-04-16T02:34:44;99888.65;;;6.97;100.00
51528;BME280;37612;51.768;21.590;2023-04-16T02:38:45;99888.66;;;6.95;100.00
51528;BME280;37612;51.768;21.590;2023-04-16T02:42:47;99889.25;;;6.91;100.00
51528;BME280;37612;51.768;21.590;2023-04-16T02:46:49;99891.04;;;6.84;100.00
51528;BME280;37612;51.768;21.590;2023-04-16T02:50:51;99890.61;;;6.75;100.00
51528;BME280;37612;51.768;21.590;2023-04-16T02:54:53;99894.37;;;6.68;100.00
51528;BME280;37612;51.768;21.590;2023-04-16T02:58:55;99895.90;;;6.67;100.00
51528;BME280;37612;51.768;21.590;2023-04-16T03:02:57;99893.20;;;6.68;100.00
51528;BME280;37612;51.768;21.590;2023-04-16T03:06:59;99887.71;;;6.69;100.00
51528;BME280;37612;51.768;21.590;2023-04-16T03:11:01;99888.62;;;6.74;100.00
51528;BME280;37612;51.768;21.590;2023-04-16T03:15:03;99887.23;;;6.78;100.00
51528;BME280;37612;51.768;21.590;2023-04-16T03:19:05;99885.15;;;6.82;100.00
51528;BME280;37612;51.768;21.590;2023-04-16T03:23:07;99886.63;;;6.81;100.00
51528;BME280;37612;51.768;21.590;2023-04-16T03:27:10;99885.77;;;6.81;100.00
51528;BME280;37612;51.768;21.590;2023-04-16T03:31:12;99888.73;;;6.83;100.00
51528;BME280;37612;51.768;21.590;2023-04-16T03:35:13;99890.39;;;6.81;100.00
51528;BME280;37612;51.768;21.590;2023-04-16T03:39:16;99895.33;;;6.75;100.00
51528;BME280;37612;51.768;21.590;2023-04-16T03:43:18;99902.97;;;6.69;100.00
51528;BME280;37612;51.768;21.590;2023-04-16T03:47:20;99916.11;;;6.66;100.00
51528;BME280;37612;51.768;21.590;2023-04-16T03:51:22;99923.75;;;6.66;100.00
51528;BME280;37612;51.768;21.590;2023-04-16T03:55:24;99929.15;;;6.71;100.00
51528;BME280;37612;51.768;21.590;2023-04-16T03:59:26;99939.52;;;6.77;100.00
51528;BME280;37612;51.768;21.590;2023-04-16T04:03:28;99943.66;;;6.83;100.00
51528;BME280;37612;51.768;21.590;2023-04-16T04:07:30;99944.52;;;6.92;100.00
51528;BME280;37612;51.768;21.590;2023-04-16T04:11:32;99951.10;;;7.01;100.00
51528;BME280;37612;51.768;21.590;2023-04-16T04:15:33;99951.35;;;7.06;100.00
51528;BME280;37612;51.768;21.590;2023-04-16T04:19:35;99957.33;;;7.10;100.00
51528;BME280;37612;51.768;21.590;2023-04-16T04:23:37;99953.58;;;7.15;100.00
51528;BME280;37612;51.768;21.590;2023-04-16T04:27:39;99957.67;;;7.25;100.00
51528;BME280;37612;51.768;21.590;2023-04-16T04:31:41;99956.48;;;7.35;100.00
51528;BME280;37612;51.768;21.590;2023-04-16T04:35:43;99957.48;;;7.44;100.00
51528;BME280;37612;51.768;21.590;2023-04-16T04:39:45;99962.20;;;7.50;100.00
51528;BME280;37612;51.768;21.590;2023-04-16T04:43:47;99963.30;;;7.59;100.00
51528;BME280;37612;51.768;21.590;2023-04-16T04:47:48;99969.77;;;7.68;100.00
51528;BME280;37612;51.768;21.590;2023-04-16T04:51:50;99976.02;;;7.76;100.00
51528;BME280;37612;51.768;21.590;2023-04-16T04:55:52;99973.56;;;7.82;100.00
51528;BME280;37612;51.768;21.590;2023-04-16T04:59:54;99973.73;;;7.86;100.00
51528;BME280;37612;51.768;21.590;2023-04-16T05:03:56;99976.77;;;7.92;100.00
51528;BME280;37612;51.768;21.590;2023-04-16T05:07:58;99983.60;;;8.01;100.00
51528;BME280;37612;51.768;21.590;2023-04-16T05:12:00;99984.23;;;8.07;100.00
51528;BME280;37612;51.768;21.590;2023-04-16T05:16:02;99985.86;;;8.11;100.00
51528;BME280;37612;51.768;21.590;2023-04-16T05:20:04;99984.58;;;8.16;100.00
51528;BME280;37612;51.768;21.590;2023-04-16T05:24:06;99981.20;;;8.24;100.00
51528;BME280;37612;51.768;21.590;2023-04-16T05:28:09;99977.28;;;8.29;100.00
51528;BME280;37612;51.768;21.590;2023-04-16T05:32:11;99976.52;;;8.36;100.00
51528;BME280;37612;51.768;21.590;2023-04-16T05:36:13;99980.55;;;8.39;100.00
51528;BME280;37612;51.768;21.590;2023-04-16T05:40:15;99985.54;;;8.41;100.00
51528;BME280;37612;51.768;21.590;2023-04-16T05:44:17;99992.81;;;8.49;100.00
51528;BME280;37612;51.768;21.590;2023-04-16T05:48:19;99994.54;;;8.59;100.00
51528;BME280;37612;51.768;21.590;2023-04-16T05:52:20;100000.02;;;8.67;100.00
51528;BME280;37612;51.768;21.590;2023-04-16T05:56:22;100007.52;;;8.70;100.00
51528;BME280;37612;51.768;21.590;2023-04-16T06:00:24;100009.66;;;8.74;100.00
51528;BME280;37612;51.768;21.590;2023-04-16T06:04:26;100016.70;;;8.77;100.00
51528;BME280;37612;51.768;21.590;2023-04-16T06:08:28;100019.00;;;8.83;99.96
51528;BME280;37612;51.768;21.590;2023-04-16T06:12:30;100023.35;;;8.86;99.86
51528;BME280;37612;51.768;21.590;2023-04-16T06:16:32;100020.63;;;8.91;99.51
51528;BME280;37612;51.768;21.590;2023-04-16T06:20:33;100022.61;;;9.00;99.61
51528;BME280;37612;51.768;21.590;2023-04-16T06:24:36;100028.56;;;9.08;99.57
51528;BME280;37612;51.768;21.590;2023-04-16T06:28:38;100033.59;;;9.13;98.91
51528;BME280;37612;51.768;21.590;2023-04-16T06:32:40;100031.25;;;9.16;98.61
51528;BME280;37612;51.768;21.590;2023-04-16T06:36:42;100028.85;;;9.26;98.72
51528;BME280;37612;51.768;21.590;2023-04-16T06:40:44;100029.56;;;9.33;98.52
51528;BME280;37612;51.768;21.590;2023-04-16T06:44:46;100031.83;;;9.38;98.67
51528;BME280;37612;51.768;21.590;2023-04-16T06:48:48;100033.48;;;9.45;98.41
51528;BME280;37612;51.768;21.590;2023-04-16T06:52:51;100040.81;;;9.46;97.93
51528;BME280;37612;51.768;21.590;2023-04-16T06:56:53;100045.83;;;9.46;97.65
51528;BME280;37612;51.768;21.590;2023-04-16T07:00:55;100048.67;;;9.51;97.38
51528;BME280;37612;51.768;21.590;2023-04-16T07:04:57;100049.19;;;9.57;97.21
51528;BME280;37612;51.768;21.590;2023-04-16T07:08:59;100053.92;;;9.63;97.06
51528;BME280;37612;51.768;21.590;2023-04-16T07:13:00;100056.61;;;9.67;97.06
51528;BME280;37612;51.768;21.590;2023-04-16T07:17:02;100059.33;;;9.71;96.59
51528;BME280;37612;51.768;21.590;2023-04-16T07:21:04;100065.91;;;9.79;96.62
51528;BME280;37612;51.768;21.590;2023-04-16T07:25:06;100067.10;;;9.81;96.38
51528;BME280;37612;51.768;21.590;2023-04-16T07:29:08;100073.85;;;9.89;95.65
51528;BME280;37612;51.768;21.590;2023-04-16T07:33:10;100071.59;;;9.96;95.35
51528;BME280;37612;51.768;21.590;2023-04-16T07:37:12;100074.50;;;10.05;95.54
51528;BME280;37612;51.768;21.590;2023-04-16T07:41:14;100072.73;;;10.21;95.51
51528;BME280;37612;51.768;21.590;2023-04-16T07:45:17;100074.77;;;10.38;95.14
51528;BME280;37612;51.768;21.590;2023-04-16T07:49:21;100081.32;;;10.53;94.72
51528;BME280;37612;51.768;21.590;2023-04-16T07:53:23;100082.35;;;10.62;94.17
51528;BME280;37612;51.768;21.590;2023-04-16T07:57:26;100087.63;;;10.71;93.84
51528;BME280;37612;51.768;21.590;2023-04-16T08:01:27;100086.52;;;10.87;93.73
51528;BME280;37612;51.768;21.590;2023-04-16T08:05:29;100087.92;;;11.02;92.65
51528;BME280;37612;51.768;21.590;2023-04-16T08:09:31;100086.48;;;11.25;92.87
51528;BME280;37612;51.768;21.590;2023-04-16T08:13:33;100084.41;;;11.54;92.36
51528;BME280;37612;51.768;21.590;2023-04-16T08:17:35;100089.77;;;11.70;91.54
51528;BME280;37612;51.768;21.590;2023-04-16T08:21:38;100096.41;;;11.77;91.41
51528;BME280;37612;51.768;21.590;2023-04-16T08:25:40;100099.31;;;11.89;90.27
51528;BME280;37612;51.768;21.590;2023-04-16T08:29:42;100097.31;;;11.92;90.79
51528;BME280;37612;51.768;21.590;2023-04-16T08:33:43;100097.52;;;12.26;89.95
51528;BME280;37612;51.768;21.590;2023-04-16T08:37:45;100099.79;;;12.71;88.36
51528;BME280;37612;51.768;21.590;2023-04-16T08:41:48;100101.83;;;12.86;86.46
51528;BME280;37612;51.768;21.590;2023-04-16T08:45:51;100107.17;;;12.83;86.80
51528;BME280;37612;51.768;21.590;2023-04-16T08:49:56;100103.48;;;12.71;85.99
51528;BME280;37612;51.768;21.590;2023-04-16T08:54:03;100109.20;;;12.68;86.28
51528;BME280;37612;51.768;21.590;2023-04-16T08:58:20;100110.11;;;12.66;85.43
51528;BME280;37612;51.768;21.590;2023-04-16T09:02:24;100112.86;;;12.71;85.18
51528;BME280;37612;51.768;21.590;2023-04-16T09:06:27;100109.35;;;12.94;84.51
51528;BME280;37612;51.768;21.590;2023-04-16T09:10:30;100113.61;;;13.17;84.88
51528;BME280;37612;51.768;21.590;2023-04-16T09:14:36;100116.20;;;13.47;83.39
51528;BME280;37612;51.768;21.590;2023-04-16T09:18:43;100117.14;;;13.59;82.51
51528;BME280;37612;51.768;21.590;2023-04-16T09:22:48;100113.27;;;13.57;83.03
51528;BME280;37612;51.768;21.590;2023-04-16T09:26:53;100121.85;;;13.66;82.88
51528;BME280;37612;51.768;21.590;2023-04-16T09:31:15;100123.45;;;13.55;80.35
51528;BME280;37612;51.768;21.590;2023-04-16T09:35:18;100128.06;;;13.44;80.41
51528;BME280;37612;51.768;21.590;2023-04-16T09:39:22;100131.69;;;13.34;79.50
51528;BME280;37612;51.768;21.590;2023-04-16T09:43:26;100135.71;;;13.36;81.12
51528;BME280;37612;51.768;21.590;2023-04-16T09:47:39;100138.73;;;13.44;80.31
51528;BME280;37612;51.768;21.590;2023-04-16T09:51:43;100134.35;;;13.57;79.98
51528;BME280;37612;51.768;21.590;2023-04-16T09:55:45;100134.05;;;13.73;79.89
51528;BME280;37612;51.768;21.590;2023-04-16T09:59:51;100138.55;;;13.82;78.56
51528;BME280;37612;51.768;21.590;2023-04-16T10:03:53;100140.80;;;13.90;79.05
51528;BME280;37612;51.768;21.590;2023-04-16T10:07:59;100141.44;;;14.12;78.92
51528;BME280;37612;51.768;21.590;2023-04-16T10:12:02;100140.41;;;14.52;78.63
51528;BME280;37612;51.768;21.590;2023-04-16T10:16:05;100150.55;;;14.80;78.16
51528;BME280;37612;51.768;21.590;2023-04-16T10:20:08;100152.56;;;14.86;77.07
51528;BME280;37612;51.768;21.590;2023-04-16T10:24:11;100157.38;;;14.93;76.56
51528;BME280;37612;51.768;21.590;2023-04-16T10:28:14;100161.63;;;14.79;76.16
51528;BME280;37612;51.768;21.590;2023-04-16T10:32:17;100159.48;;;14.59;75.49
51528;BME280;37612;51.768;21.590;2023-04-16T10:36:25;100158.88;;;14.59;76.00
51528;BME280;37612;51.768;21.590;2023-04-16T10:40:27;100152.61;;;14.55;76.21
51528;BME280;37612;51.768;21.590;2023-04-16T10:44:30;100151.73;;;14.62;75.55
51528;BME280;37612;51.768;21.590;2023-04-16T10:48:34;100152.42;;;14.67;75.23
51528;BME280;37612;51.768;21.590;2023-04-16T10:52:36;100148.22;;;14.84;75.63
51528;BME280;37612;51.768;21.590;2023-04-16T10:56:39;100149.31;;;14.92;75.28
51528;BME280;37612;51.768;21.590;2023-04-16T11:00:48;100150.39;;;14.92;74.60
51528;BME280;37612;51.768;21.590;2023-04-16T11:04:51;100151.33;;;14.89;74.17
51528;BME280;37612;51.768;21.590;2023-04-16T11:08:53;100153.57;;;14.91;73.98
51528;BME280;37612;51.768;21.590;2023-04-16T11:12:55;100153.00;;;14.99;74.02
51528;BME280;37612;51.768;21.590;2023-04-16T11:16:57;100157.86;;;15.07;74.13
51528;BME280;37612;51.768;21.590;2023-04-16T11:20:59;100152.99;;;15.11;73.45
51528;BME280;37612;51.768;21.590;2023-04-16T11:25:01;100153.66;;;15.29;73.08
51528;BME280;37612;51.768;21.590;2023-04-16T11:29:13;100145.16;;;15.46;72.97
51528;BME280;37612;51.768;21.590;2023-04-16T11:33:16;100146.58;;;15.51;72.21
51528;BME280;37612;51.768;21.590;2023-04-16T11:37:36;100145.89;;;15.74;71.68
51528;BME280;37612;51.768;21.590;2023-04-16T11:41:42;100149.05;;;15.80;68.93
51528;BME280;37612;51.768;21.590;2023-04-16T11:46:04;100153.83;;;15.79;69.82
51528;BME280;37612;51.768;21.590;2023-04-16T11:50:26;100148.31;;;16.08;69.80
51528;BME280;37612;51.768;21.590;2023-04-16T11:54:29;100151.05;;;16.44;68.79
51528;BME280;37612;51.768;21.590;2023-04-16T11:58:35;100148.55;;;16.86;68.22
51528;BME280;37612;51.768;21.590;2023-04-16T12:02:37;100144.67;;;17.11;66.26
51528;BME280;37612;51.768;21.590;2023-04-16T12:07:10;100145.29;;;17.33;66.94
51528;BME280;37612;51.768;21.590;2023-04-16T12:11:12;100140.29;;;17.54;64.86
51528;BME280;37612;51.768;21.590;2023-04-16T12:15:15;100144.61;;;17.39;62.14
51528;BME280;37612;51.768;21.590;2023-04-16T12:19:46;100143.27;;;17.24;61.87
51528;BME280;37612;51.768;21.590;2023-04-16T12:24:08;100142.37;;;16.93;62.13
51528;BME280;37612;51.768;21.590;2023-04-16T12:28:31;100136.32;;;16.54;62.39
51528;BME280;37612;51.768;21.590;2023-04-16T12:32:36;100133.77;;;16.51;62.80
51528;BME280;37612;51.768;21.590;2023-04-16T12:36:38;100131.13;;;16.51;63.03
51528;BME280;37612;51.768;21.590;2023-04-16T12:40:40;100133.89;;;16.45;63.62
51528;BME280;37612;51.768;21.590;2023-04-16T12:44:42;100136.89;;;16.31;62.82
51528;BME280;37612;51.768;21.590;2023-04-16T12:48:53;100134.00;;;16.13;63.17
51528;BME280;37612;51.768;21.590;2023-04-16T12:53:05;100132.74;;;15.97;62.23
51528;BME280;37612;51.768;21.590;2023-04-16T12:57:12;100136.02;;;15.91;62.95
51528;BME280;37612;51.768;21.590;2023-04-16T13:01:14;100138.23;;;15.79;62.52
51528;BME280;37612;51.768;21.590;2023-04-16T13:05:16;100143.52;;;15.70;62.85
51528;BME280;37612;51.768;21.590;2023-04-16T13:09:24;100142.91;;;15.79;63.54
51528;BME280;37612;51.768;21.590;2023-04-16T13:13:26;100138.48;;;15.79;62.67
51528;BME280;37612;51.768;21.590;2023-04-16T13:17:28;100138.86;;;15.75;62.78
51528;BME280;37612;51.768;21.590;2023-04-16T13:21:30;100134.22;;;15.88;63.27
51528;BME280;37612;51.768;21.590;2023-04-16T13:25:32;100127.86;;;16.20;63.12
51528;BME280;37612;51.768;21.590;2023-04-16T13:29:34;100132.94;;;16.44;62.68
51528;BME280;37612;51.768;21.590;2023-04-16T13:33:45;100132.50;;;16.49;62.13
51528;BME280;37612;51.768;21.590;2023-04-16T13:37:47;100133.10;;;16.48;61.85
51528;BME280;37612;51.768;21.590;2023-04-16T13:41:58;100135.94;;;16.46;62.25
51528;BME280;37612;51.768;21.590;2023-04-16T13:46:01;100136.06;;;16.44;62.50
51528;BME280;37612;51.768;21.590;2023-04-16T13:50:29;100137.07;;;16.36;62.68
51528;BME280;37612;51.768;21.590;2023-04-16T14:00:24;100139.92;;;16.24;62.29
51528;BME280;37612;51.768;21.590;2023-04-16T14:04:33;100139.58;;;16.08;61.90
51528;BME280;37612;51.768;21.590;2023-04-16T14:08:47;100138.84;;;16.02;61.94
51528;BME280;37612;51.768;21.590;2023-04-16T14:12:57;100143.10;;;16.07;62.59
51528;BME280;37612;51.768;21.590;2023-04-16T14:17:17;100142.19;;;16.13;62.80
51528;BME280;37612;51.768;21.590;2023-04-16T14:21:22;100141.45;;;16.28;61.87
51528;BME280;37612;51.768;21.590;2023-04-16T14:25:58;100137.24;;;16.49;61.29
51528;BME280;37612;51.768;21.590;2023-04-16T14:35:35;100134.13;;;17.18;60.81
51528;BME280;37612;51.768;21.590;2023-04-16T14:39:39;100133.64;;;17.33;59.77
51528;BME280;37612;51.768;21.590;2023-04-16T14:43:45;100132.33;;;17.38;58.97
51528;BME280;37612;51.768;21.590;2023-04-16T14:47:46;100139.69;;;17.33;58.27
51528;BME280;37612;51.768;21.590;2023-04-16T14:51:49;100139.70;;;17.36;58.19
51528;BME280;37612;51.768;21.590;2023-04-16T14:55:52;100139.23;;;17.38;57.79
51528;BME280;37612;51.768;21.590;2023-04-16T14:59:54;100138.54;;;18.07;58.09
51528;BME280;37612;51.768;21.590;2023-04-16T15:03:56;100141.63;;;20.29;55.55
51528;BME280;37612;51.768;21.590;2023-04-16T15:08:00;100143.00;;;20.25;54.89
51528;BME280;37612;51.768;21.590;2023-04-16T15:12:02;100149.72;;;19.23;55.23
51528;BME280;37612;51.768;21.590;2023-04-16T15:16:04;100152.16;;;19.18;54.84
51528;BME280;37612;51.768;21.590;2023-04-16T15:20:07;100151.73;;;19.01;54.90
51528;BME280;37612;51.768;21.590;2023-04-16T15:24:09;100153.46;;;18.46;55.59
51528;BME280;37612;51.768;21.590;2023-04-16T15:28:12;100153.27;;;17.85;56.16
51528;BME280;37612;51.768;21.590;2023-04-16T15:32:15;100156.58;;;17.40;56.62
51528;BME280;37612;51.768;21.590;2023-04-16T15:36:17;100162.45;;;16.91;56.79
51528;BME280;37612;51.768;21.590;2023-04-16T15:40:20;100158.69;;;16.56;57.20
51528;BME280;37612;51.768;21.590;2023-04-16T15:44:22;100161.15;;;16.36;57.55
51528;BME280;37612;51.768;21.590;2023-04-16T15:48:24;100163.21;;;16.23;57.85
51528;BME280;37612;51.768;21.590;2023-04-16T15:52:26;100164.48;;;16.09;58.27
51528;BME280;37612;51.768;21.590;2023-04-16T15:56:47;100169.08;;;15.92;58.72
51528;BME280;37612;51.768;21.590;2023-04-16T16:00:51;100172.08;;;15.70;59.10
51528;BME280;37612;51.768;21.590;2023-04-16T16:04:53;100171.60;;;15.49;59.01
51528;BME280;37612;51.768;21.590;2023-04-16T16:08:55;100180.39;;;15.31;59.63
51528;BME280;37612;51.768;21.590;2023-04-16T16:12:57;100181.43;;;15.14;59.92
51528;BME280;37612;51.768;21.590;2023-04-16T16:17:08;100180.23;;;15.03;60.20
51528;BME280;37612;51.768;21.590;2023-04-16T16:21:10;100181.54;;;14.85;60.81
51528;BME280;37612;51.768;21.590;2023-04-16T16:25:12;100180.29;;;14.74;61.36
51528;BME280;37612;51.768;21.590;2023-04-16T16:29:56;100182.37;;;14.63;62.26
51528;BME280;37612;51.768;21.590;2023-04-16T16:34:24;100189.80;;;14.53;62.62
51528;BME280;37612;51.768;21.590;2023-04-16T16:38:56;100194.72;;;14.40;63.18
51528;BME280;37612;51.768;21.590;2023-04-16T16:43:50;100201.73;;;14.28;63.99
51528;BME280;37612;51.768;21.590;2023-04-16T16:52:33;100208.59;;;14.08;64.30
51528;BME280;37612;51.768;21.590;2023-04-16T16:57:01;100212.84;;;14.01;64.60
51528;BME280;37612;51.768;21.590;2023-04-16T17:01:06;100216.23;;;13.94;64.82
51528;BME280;37612;51.768;21.590;2023-04-16T17:05:21;100215.66;;;13.86;65.10
51528;BME280;37612;51.768;21.590;2023-04-16T17:09:58;100219.15;;;13.77;65.56
51528;BME280;37612;51.768;21.590;2023-04-16T17:24:04;100227.46;;;13.49;66.58
51528;BME280;37612;51.768;21.590;2023-04-16T17:28:22;100231.52;;;13.47;66.70
51528;BME280;37612;51.768;21.590;2023-04-16T17:32:28;100236.72;;;13.44;67.05
51528;BME280;37612;51.768;21.590;2023-04-16T17:36:30;100238.73;;;13.37;67.45
51528;BME280;37612;51.768;21.590;2023-04-16T17:40:33;100240.31;;;13.29;67.87
51528;BME280;37612;51.768;21.590;2023-04-16T17:44:36;100245.45;;;13.22;68.45
51528;BME280;37612;51.768;21.590;2023-04-16T17:48:38;100247.25;;;13.14;68.70
51528;BME280;37612;51.768;21.590;2023-04-16T17:52:40;100249.86;;;13.04;68.84
51528;BME280;37612;51.768;21.590;2023-04-16T17:56:42;100251.73;;;12.91;69.06
51528;BME280;37612;51.768;21.590;2023-04-16T18:00:45;100256.09;;;12.77;69.64
51528;BME280;37612;51.768;21.590;2023-04-16T18:04:47;100254.77;;;12.61;70.20
51528;BME280;37612;51.768;21.590;2023-04-16T18:08:53;100260.27;;;12.52;70.65
51528;BME280;37612;51.768;21.590;2023-04-16T18:12:55;100265.79;;;12.47;71.12
51528;BME280;37612;51.768;21.590;2023-04-16T18:16:58;100267.39;;;12.38;71.64
51528;BME280;37612;51.768;21.590;2023-04-16T18:21:02;100271.17;;;12.29;71.90
51528;BME280;37612;51.768;21.590;2023-04-16T18:25:04;100275.48;;;12.19;71.95
51528;BME280;37612;51.768;21.590;2023-04-16T18:29:07;100278.39;;;12.10;72.22
51528;BME280;37612;51.768;21.590;2023-04-16T18:33:13;100277.89;;;11.99;72.48
51528;BME280;37612;51.768;21.590;2023-04-16T18:37:15;100279.40;;;11.93;72.71
51528;BME280;37612;51.768;21.590;2023-04-16T18:41:18;100281.09;;;11.90;73.19
51528;BME280;37612;51.768;21.590;2023-04-16T18:45:20;100283.61;;;11.84;73.35
51528;BME280;37612;51.768;21.590;2023-04-16T18:49:25;100285.06;;;11.75;73.31
51528;BME280;37612;51.768;21.590;2023-04-16T18:53:29;100293.41;;;11.66;74.00
51528;BME280;37612;51.768;21.590;2023-04-16T18:57:31;100295.02;;;11.57;73.91
51528;BME280;37612;51.768;21.590;2023-04-16T19:01:53;100297.84;;;11.47;74.25
51528;BME280;37612;51.768;21.590;2023-04-16T19:05:55;100299.61;;;11.40;74.39
51528;BME280;37612;51.768;21.590;2023-04-16T19:09:58;100306.65;;;11.30;74.68
51528;BME280;37612;51.768;21.590;2023-04-16T19:14:11;100302.23;;;11.22;75.00
51528;BME280;37612;51.768;21.590;2023-04-16T19:18:13;100301.19;;;11.13;75.09
51528;BME280;37612;51.768;21.590;2023-04-16T19:22:15;100304.11;;;11.08;75.75
51528;BME280;37612;51.768;21.590;2023-04-16T19:26:32;100304.60;;;11.08;75.72
51528;BME280;37612;51.768;21.590;2023-04-16T19:30:35;100306.90;;;11.08;76.04
51528;BME280;37612;51.768;21.590;2023-04-16T19:34:37;100315.73;;;11.06;76.30
51528;BME280;37612;51.768;21.590;2023-04-16T19:38:41;100314.06;;;11.01;76.47
51528;BME280;37612;51.768;21.590;2023-04-16T19:42:43;100314.14;;;10.99;76.42
51528;BME280;37612;51.768;21.590;2023-04-16T19:46:45;100320.21;;;10.98;76.46
51528;BME280;37612;51.768;21.590;2023-04-16T19:50:47;100321.35;;;10.95;76.74
51528;BME280;37612;51.768;21.590;2023-04-16T19:54:52;100325.61;;;10.91;76.93
51528;BME280;37612;51.768;21.590;2023-04-16T19:58:55;100327.59;;;10.80;77.02
51528;BME280;37612;51.768;21.590;2023-04-16T20:02:57;100324.79;;;10.72;77.30
51528;BME280;37612;51.768;21.590;2023-04-16T20:06:59;100324.93;;;10.63;77.18
51528;BME280;37612;51.768;21.590;2023-04-16T20:11:01;100324.68;;;10.52;77.24
51528;BME280;37612;51.768;21.590;2023-04-16T20:15:04;100329.15;;;10.38;77.90
51528;BME280;37612;51.768;21.590;2023-04-16T20:19:26;100324.70;;;10.28;78.09
51528;BME280;37612;51.768;21.590;2023-04-16T20:23:39;100323.02;;;10.19;77.93
51528;BME280;37612;51.768;21.590;2023-04-16T20:27:41;100318.77;;;10.08;78.32
51528;BME280;37612;51.768;21.590;2023-04-16T20:31:44;100318.11;;;9.95;78.68
51528;BME280;37612;51.768;21.590;2023-04-16T20:35:46;100323.09;;;9.85;79.34
51528;BME280;37612;51.768;21.590;2023-04-16T20:39:49;100327.07;;;9.81;79.63
51528;BME280;37612;51.768;21.590;2023-04-16T20:43:54;100327.12;;;9.79;79.62
51528;BME280;37612;51.768;21.590;2023-04-16T20:47:57;100328.52;;;9.74;80.12
51528;BME280;37612;51.768;21.590;2023-04-16T20:52:05;100325.96;;;9.66;80.12
51528;BME280;37612;51.768;21.590;2023-04-16T20:56:08;100326.95;;;9.62;80.38
51528;BME280;37612;51.768;21.590;2023-04-16T21:00:13;100330.98;;;9.61;80.43
51528;BME280;37612;51.768;21.590;2023-04-16T21:04:16;100342.43;;;9.58;80.92
51528;BME280;37612;51.768;21.590;2023-04-16T21:08:22;100344.50;;;9.55;80.84
51528;BME280;37612;51.768;21.590;2023-04-16T21:12:25;100349.34;;;9.52;81.38
51528;BME280;37612;51.768;21.590;2023-04-16T21:16:27;100351.54;;;9.47;81.18
51528;BME280;37612;51.768;21.590;2023-04-16T21:20:29;100354.02;;;9.36;80.97
51528;BME280;37612;51.768;21.590;2023-04-16T21:24:31;100357.02;;;9.22;81.63
51528;BME280;37612;51.768;21.590;2023-04-16T21:28:33;100359.35;;;9.14;81.95
51528;BME280;37612;51.768;21.590;2023-04-16T21:32:35;100351.67;;;9.05;81.97
51528;BME280;37612;51.768;21.590;2023-04-16T21:36:36;100355.03;;;8.96;82.76